Time;durP1;ratioP1;P1;durP2;ratioP2;P2;SDS_P1;SDS_P2;PMS_P1;PMS_P2;Temp;Humidity;BMP_temperature;BMP_pressure;BME280_temperature;BME280_humidity;BME280_pressure;Samples;Min_cycle;Max_cycle;Signal;HPM_P1;HPM_P2
2022/11/02 00:00:20;;;;;;;31.23;16.13;;;;;;;5.70;60.90;100393.16;4896362;28;20044;-61
2022/11/02 00:06:24;;;;;;;30.58;16.55;;;;;;;5.93;60.63;100393.25;4874341;28;20143;-61
2022/11/02 00:09:41;;;;;;;31.08;17.58;;;;;;;6.19;60.78;100390.81;4860928;28;20113;-60
2022/11/02 00:12:30;;;;;;;31.60;16.60;;;;;;;6.34;60.10;100399.50;4906058;28;20065;-60
2022/11/02 00:15:12;;;;;;;27.85;16.30;;;;;;;6.46;60.39;100392.63;4875018;28;20037;-60
2022/11/02 00:18:03;;;;;;;31.38;16.52;;;;;;;6.44;57.53;100401.25;4839447;28;20073;-61
2022/11/02 00:20:54;;;;;;;29.27;16.20;;;;;;;6.52;56.43;100403.88;4872976;28;20195;-60
2022/11/02 00:23:36;;;;;;;30.30;16.13;;;;;;;6.42;55.93;100393.47;4885501;28;20162;-62
2022/11/02 00:26:21;;;;;;;29.45;16.77;;;;;;;6.70;58.13;100414.31;4874123;28;20187;-61
2022/11/02 00:31:52;;;;;;;31.65;17.08;;;;;;;6.77;57.07;100410.84;4889157;28;20080;-61
2022/11/02 00:34:34;;;;;;;32.83;17.33;;;;;;;6.39;53.39;100419.44;4900288;28;20049;-61
2022/11/02 00:37:18;;;;;;;29.23;18.00;;;;;;;6.24;56.82;100401.19;4893873;28;20079;-61
2022/11/02 00:40:00;;;;;;;29.88;17.48;;;;;;;6.37;58.37;100421.16;4902578;28;20210;-61
2022/11/02 00:42:57;;;;;;;28.67;17.73;;;;;;;6.36;59.22;100419.41;4899021;28;20121;-61
2022/11/02 00:45:45;;;;;;;32.15;17.33;;;;;;;6.28;59.10;100417.66;4860543;28;20091;-61
2022/11/02 00:48:25;;;;;;;33.50;18.17;;;;;;;6.18;59.48;100419.34;4899446;28;20041;-61
2022/11/02 00:51:02;;;;;;;30.35;18.55;;;;;;;6.05;58.62;100419.28;4897986;28;20158;-61
2022/11/02 00:53:41;;;;;;;33.70;17.38;;;;;;;5.94;57.64;100415.78;4883876;28;20117;-61
2022/11/02 00:56:20;;;;;;;29.95;17.98;;;;;;;5.92;59.38;100406.25;4855984;28;20047;-60
2022/11/02 00:59:07;;;;;;;30.92;17.58;;;;;;;6.03;58.76;100420.13;4901944;28;20467;-61
2022/11/02 01:01:51;;;;;;;32.25;18.75;;;;;;;5.99;59.46;100423.56;4909299;28;20122;-61
2022/11/02 01:04:29;;;;;;;32.38;18.05;;;;;;;5.95;58.48;100430.47;4900128;28;20061;-60
2022/11/02 01:07:23;;;;;;;32.30;17.88;;;;;;;6.04;59.37;100420.16;4898628;28;20052;-61
2022/11/02 01:09:58;;;;;;;30.88;18.80;;;;;;;6.08;58.97;100420.16;4898331;28;20076;-61
2022/11/02 01:12:47;;;;;;;32.08;18.30;;;;;;;6.12;59.39;100424.53;4905510;28;20045;-61
2022/11/02 01:15:34;;;;;;;35.90;19.02;;;;;;;6.12;58.80;100429.72;4897265;28;20121;-62
2022/11/02 01:18:26;;;;;;;32.60;18.40;;;;;;;6.04;58.91;100433.13;4922282;28;20086;-61
2022/11/02 01:21:13;;;;;;;29.80;17.60;;;;;;;5.63;56.96;100392.22;4893165;28;20045;-60
2022/11/02 01:27:04;;;;;;;33.25;18.83;;;;;;;5.81;58.59;100430.34;4915135;28;20077;-60
2022/11/02 01:29:43;;;;;;;29.95;18.88;;;;;;;5.88;58.58;100430.41;4880139;28;20426;-60
2022/11/02 01:35:25;;;;;;;31.42;18.20;;;;;;;5.84;58.03;100417.44;4894769;28;20042;-60
2022/11/02 01:38:18;;;;;;;30.67;18.17;;;;;;;5.84;58.13;100409.66;4868012;28;20049;-60
2022/11/02 01:40:59;;;;;;;30.88;17.70;;;;;;;5.87;58.62;100406.22;4891824;28;20068;-60
2022/11/02 01:43:37;;;;;;;29.23;17.83;;;;;;;5.73;58.10;100389.69;4896535;28;20053;-62
2022/11/02 01:46:28;;;;;;;30.90;18.63;;;;;;;5.81;58.13;100401.84;4843423;28;20395;-60
2022/11/02 01:49:27;;;;;;;29.95;18.05;;;;;;;5.76;58.75;100389.72;4912704;28;20033;-61
2022/11/02 01:52:11;;;;;;;30.05;17.45;;;;;;;5.90;59.50;100382.88;4867629;28;20074;-60
2022/11/02 01:55:15;;;;;;;28.70;17.48;;;;;;;6.02;59.83;100376.91;4915162;28;20052;-60
2022/11/02 01:58:02;;;;;;;29.88;16.95;;;;;;;6.06;59.92;100378.63;4897319;28;20440;-61
2022/11/02 02:00:55;;;;;;;26.23;16.52;;;;;;;6.10;59.52;100371.75;4922135;28;20056;-60
2022/11/02 02:03:43;;;;;;;36.13;18.77;;;;;;;6.14;59.44;100371.78;4910291;28;20116;-61
2022/11/02 02:07:05;;;;;;;34.78;17.65;;;;;;;6.31;59.75;100365.75;4897610;28;20040;-60
2022/11/02 02:09:58;;;;;;;33.42;17.65;;;;;;;6.33;59.06;100359.69;4893495;28;20035;-60
2022/11/02 02:12:39;;;;;;;30.38;18.17;;;;;;;6.09;59.11;100311.22;4886784;28;20069;-60
2022/11/02 02:15:20;;;;;;;30.63;17.58;;;;;;;6.29;59.96;100326.84;4933236;28;20045;-61
2022/11/02 02:18:08;;;;;;;33.08;17.88;;;;;;;6.49;58.75;100352.84;4900991;28;20056;-61
2022/11/02 02:21:11;;;;;;;25.98;16.02;;;;;;;6.59;59.46;100344.19;4885096;28;20156;-60
2022/11/02 02:24:31;;;;;;;27.35;15.98;;;;;;;6.60;57.42;100351.09;4907373;28;20057;-60
2022/11/02 02:27:17;;;;;;;23.63;14.70;;;;;;;6.51;57.69;100339.84;4902408;28;20054;-61
2022/11/02 02:30:37;;;;;;;25.60;15.73;;;;;;;6.53;57.53;100332.94;4841806;28;20161;-60
2022/11/02 02:33:34;;;;;;;32.88;16.00;;;;;;;6.76;56.74;100314.75;4870298;28;20269;-61
2022/11/02 02:36:34;;;;;;;28.42;15.82;;;;;;;7.22;57.41;100331.19;4911464;28;20044;-65
2022/11/02 02:39:24;;;;;;;28.85;16.45;;;;;;;7.64;56.34;100333.66;4901593;28;20057;-61
2022/11/02 02:42:09;;;;;;;22.65;13.70;;;;;;;7.82;54.42;100302.41;4905807;28;20052;-61
2022/11/02 02:44:57;;;;;;;25.75;15.43;;;;;;;7.76;53.26;100282.50;4918040;28;20050;-62
2022/11/02 02:47:47;;;;;;;24.30;14.27;;;;;;;8.01;52.86;100329.19;4866920;28;20146;-62
2022/11/02 02:50:32;;;;;;;24.10;15.32;;;;;;;8.06;52.37;100319.59;4910634;28;20058;-62
2022/11/02 02:56:19;;;;;;;21.83;14.20;;;;;;;8.09;51.53;100322.22;4924889;28;20046;-62
2022/11/02 02:59:20;;;;;;;24.15;14.52;;;;;;;7.46;52.56;100287.78;4904020;28;20493;-61
2022/11/02 03:02:05;;;;;;;24.08;15.10;;;;;;;7.60;54.49;100301.63;4907381;28;20048;-60
2022/11/02 03:05:04;;;;;;;22.73;14.45;;;;;;;7.44;52.94;100305.13;4867099;28;20084;-62
2022/11/02 03:08:02;;;;;;;24.20;14.68;;;;;;;7.12;53.77;100300.88;4899757;28;20061;-61
2022/11/02 03:11:04;;;;;;;27.33;13.70;;;;;;;6.87;55.12;100293.13;4901017;28;20087;-62
2022/11/02 03:14:29;;;;;;;30.30;14.77;;;;;;;6.78;55.49;100297.44;4909934;28;20137;-63
2022/11/02 03:17:20;;;;;;;23.52;13.30;;;;;;;6.68;54.37;100293.97;4919083;28;20048;-63
2022/11/02 03:23:53;;;;;;;26.05;14.38;;;;;;;6.94;52.55;100282.69;4839981;28;20058;-64
2022/11/02 03:27:04;;;;;;;24.00;13.68;;;;;;;7.10;53.28;100268.84;4790328;28;20043;-62
2022/11/02 03:33:15;;;;;;;20.25;11.20;;;;;;;7.45;51.37;100271.34;4830224;28;20047;-62
2022/11/02 03:36:17;;;;;;;18.13;11.10;;;;;;;7.55;51.04;100283.44;4815861;28;20222;-63
2022/11/02 03:39:16;;;;;;;19.83;12.23;;;;;;;7.61;51.32;100271.25;4839352;28;20055;-64
2022/11/02 03:42:14;;;;;;;21.48;12.02;;;;;;;7.72;51.75;100267.75;4792056;28;20055;-64
2022/11/02 03:45:29;;;;;;;20.15;11.73;;;;;;;7.76;50.34;100256.47;4837903;28;20046;-64
2022/11/02 03:48:40;;;;;;;23.65;11.80;;;;;;;7.90;51.31;100263.34;4838520;28;20042;-64
2022/11/02 03:52:03;;;;;;;20.13;11.75;;;;;;;7.98;51.59;100245.94;4844980;28;20089;-62
2022/11/02 04:01:15;;;;;;;;;;;;;;;7.94;48.58;100244.25;4856978;28;20116;-63
2022/11/02 04:04:06;;;;;;;19.13;10.73;;;;;;;7.95;49.74;100240.75;4845088;28;19925;-62
2022/11/02 04:07:10;;;;;;;20.00;11.30;;;;;;;8.04;50.81;100248.50;4833995;28;20073;-62
2022/11/02 04:09:52;;;;;;;20.75;11.20;;;;;;;8.07;50.98;100245.03;4844288;28;20307;-62
2022/11/02 04:16:01;;;;;;;17.52;10.43;;;;;;;8.07;50.87;100235.47;4856616;28;21254;-62
2022/11/02 04:28:26;;;;;;;16.52;10.00;;;;;;;7.30;51.98;100194.28;4823860;28;20047;-62
2022/11/02 04:31:01;;;;;;;24.17;11.00;;;;;;;7.37;51.29;100222.84;4799934;28;20086;-62
2022/11/02 04:33:48;;;;;;;19.00;10.38;;;;;;;7.39;52.34;100228.88;4842537;28;20689;-63
2022/11/02 04:36:48;;;;;;;23.85;9.50;;;;;;;7.42;50.61;100213.31;4839688;28;20332;-62
2022/11/02 04:39:45;;;;;;;22.92;9.85;;;;;;;7.25;52.73;100232.41;4828451;28;20488;-62
2022/11/02 04:42:39;;;;;;;20.15;10.02;;;;;;;7.21;53.83;100224.63;4795815;28;20246;-63
2022/11/02 04:45:25;;;;;;;15.57;8.43;;;;;;;7.23;52.76;100226.34;4819142;28;20505;-62
2022/11/02 04:48:19;;;;;;;16.67;8.95;;;;;;;7.24;53.23;100215.09;4837582;28;20046;-62
2022/11/02 04:51:29;;;;;;;16.73;9.43;;;;;;;7.23;53.03;100213.34;4824437;28;20054;-63
2022/11/02 04:54:06;;;;;;;25.85;10.60;;;;;;;7.27;53.74;100215.06;4831485;28;20042;-63
2022/11/02 04:57:07;;;;;;;19.27;9.57;;;;;;;7.30;53.65;100212.47;4853696;28;20046;-63
2022/11/02 04:59:58;;;;;;;15.73;9.43;;;;;;;7.19;54.00;100201.25;4844813;28;20050;-62
2022/11/02 05:03:01;;;;;;;22.00;8.80;;;;;;;7.32;54.21;100220.25;4823551;28;20055;-62
2022/11/02 05:05:55;;;;;;;17.13;8.90;;;;;;;7.26;53.19;100212.47;4868773;28;20446;-63
2022/11/02 05:08:47;;;;;;;16.00;8.48;;;;;;;7.12;52.83;100210.78;4911661;28;20040;-62
2022/11/02 05:11:44;;;;;;;11.68;7.03;;;;;;;7.18;53.15;100212.50;4873632;28;20181;-62
2022/11/02 05:14:49;;;;;;;13.02;7.22;;;;;;;7.15;52.85;100209.06;4854385;28;20103;-62
2022/11/02 05:18:04;;;;;;;12.50;7.07;;;;;;;7.09;52.48;100205.63;4951975;27;20730;-63
2022/11/02 05:20:57;;;;;;;10.77;6.57;;;;;;;7.01;52.57;100201.28;4924395;27;20056;-62
2022/11/02 05:23:40;;;;;;;13.68;7.72;;;;;;;6.90;52.48;100204.78;4929192;28;20048;-63
2022/11/02 05:26:44;;;;;;;12.93;6.90;;;;;;;6.81;53.95;100198.75;4885261;28;20298;-62
2022/11/02 05:29:44;;;;;;;11.73;6.30;;;;;;;6.81;54.10;100207.41;4913355;27;20097;-62
2022/11/02 05:32:19;;;;;;;12.35;6.20;;;;;;;6.79;54.37;100211.75;4911110;28;20468;-62
2022/11/02 05:35:27;;;;;;;11.52;5.95;;;;;;;6.09;54.14;100092.44;4893594;28;20097;-63
2022/11/02 05:38:04;;;;;;;10.80;6.53;;;;;;;6.69;54.19;100199.66;4929941;28;20047;-62
2022/11/02 05:40:53;;;;;;;12.82;5.85;;;;;;;6.77;53.45;100202.25;4901952;28;20062;-63
2022/11/02 05:46:35;;;;;;;10.73;4.72;;;;;;;6.58;52.01;100175.44;4926913;28;20113;-63
2022/11/02 05:49:15;;;;;;;8.43;4.85;;;;;;;6.62;51.17;100203.13;4935884;28;20060;-62
2022/11/02 05:52:11;;;;;;;9.48;4.30;;;;;;;6.53;50.89;100192.75;4888037;28;20044;-63
2022/11/02 05:55:09;;;;;;;9.30;3.95;;;;;;;6.45;51.55;100191.00;4909578;28;20083;-63
2022/11/02 05:58:04;;;;;;;9.45;3.95;;;;;;;6.41;52.30;100188.41;4945992;28;20059;-62
2022/11/02 06:00:46;;;;;;;9.35;4.32;;;;;;;6.37;52.56;100189.31;4900239;28;20056;-63
2022/11/02 06:03:28;;;;;;;7.80;4.20;;;;;;;6.28;53.08;100187.56;4922857;28;20048;-63
2022/11/02 06:06:24;;;;;;;7.13;4.07;;;;;;;6.21;53.02;100185.81;4931620;28;20571;-64
2022/11/02 06:12:44;;;;;;;8.68;4.32;;;;;;;6.14;53.98;100192.75;4917910;28;20083;-63
2022/11/02 06:15:17;;;;;;;8.27;4.03;;;;;;;6.05;54.45;100190.16;4915632;28;20056;-63
2022/11/02 06:20:54;;;;;;;7.28;3.70;;;;;;;5.88;55.14;100197.00;4928612;28;20059;-63
2022/11/02 06:23:34;;;;;;;9.15;4.10;;;;;;;5.75;55.43;100196.13;4869339;28;20244;-63
2022/11/02 06:26:45;;;;;;;6.25;3.72;;;;;;;5.65;56.11;100186.59;4928970;27;20048;-63
2022/11/02 06:29:33;;;;;;;6.85;3.30;;;;;;;5.54;56.58;100182.25;4881365;28;20060;-63
2022/11/02 06:32:25;;;;;;;9.98;3.95;;;;;;;5.45;56.70;100182.22;4901912;28;20249;-63
2022/11/02 06:37:59;;;;;;;6.80;4.35;;;;;;;5.30;57.63;100156.25;4924643;28;20556;-63
2022/11/02 06:40:36;;;;;;;11.32;4.43;;;;;;;5.22;57.46;100157.94;4926852;28;20048;-63
2022/11/02 06:43:29;;;;;;;10.77;4.03;;;;;;;5.21;58.21;100153.63;4931919;28;20076;-63
2022/11/02 06:49:13;;;;;;;7.80;3.40;;;;;;;5.01;58.25;100138.88;4859459;28;20081;-63
2022/11/02 06:52:00;;;;;;;7.32;3.60;;;;;;;4.96;58.54;100140.56;4860465;28;20045;-62
2022/11/02 06:54:50;;;;;;;10.77;4.80;;;;;;;4.93;58.60;100145.75;4799733;28;20057;-63
2022/11/02 07:00:37;;;;;;;6.30;3.72;;;;;;;4.88;58.45;100137.09;4830009;28;20074;-63
2022/11/02 07:03:24;;;;;;;9.98;4.60;;;;;;;4.50;58.74;100078.25;4863175;28;20472;-62
2022/11/02 07:06:18;;;;;;;7.18;4.18;;;;;;;4.78;59.25;100135.31;4847388;28;20070;-62
2022/11/02 07:09:16;;;;;;;9.65;3.95;;;;;;;4.67;59.12;100138.72;4858431;28;20076;-62
2022/11/02 07:12:05;;;;;;;9.10;4.18;;;;;;;4.61;59.85;100130.91;4843466;28;20038;-62
2022/11/02 07:14:50;;;;;;;14.30;4.97;;;;;;;4.58;60.37;100138.66;4812168;28;20042;-63
2022/11/02 07:17:56;;;;;;;11.02;5.75;;;;;;;4.51;60.95;100131.72;4858109;28;20046;-63
2022/11/02 07:20:54;;;;;;;12.80;4.57;;;;;;;4.46;61.14;100128.22;4842866;28;20113;-63
2022/11/02 07:23:37;;;;;;;11.70;5.28;;;;;;;4.38;61.29;100129.91;4810870;28;20058;-63
2022/11/02 07:26:26;;;;;;;9.32;4.82;;;;;;;4.28;61.78;100127.25;4877840;28;20048;-63
2022/11/02 07:29:08;;;;;;;14.73;5.35;;;;;;;4.21;61.45;100122.03;4882574;28;20080;-63
2022/11/02 07:31:55;;;;;;;11.88;5.32;;;;;;;4.06;62.27;100127.94;4870741;28;20215;-63
2022/11/02 07:34:36;;;;;;;19.55;7.18;;;;;;;4.04;62.88;100122.78;4904229;28;20054;-61
2022/11/02 07:37:29;;;;;;;16.08;6.72;;;;;;;3.95;62.85;100114.94;4867577;28;20053;-62
2022/11/02 07:40:16;;;;;;;18.05;5.60;;;;;;;3.85;63.33;100124.34;4921107;28;20078;-62
2022/11/02 07:43:04;;;;;;;12.98;5.70;;;;;;;3.82;63.27;100119.16;4928338;28;20043;-61
2022/11/02 07:45:42;;;;;;;23.10;7.97;;;;;;;3.73;63.74;100113.91;4954038;28;20053;-61
2022/11/02 07:48:27;;;;;;;29.15;6.03;;;;;;;3.68;64.48;100111.25;4855833;28;20064;-62
2022/11/02 07:51:17;;;;;;;10.43;4.57;;;;;;;3.59;64.48;100110.31;4873141;28;20647;-65
2022/11/02 07:54:07;;;;;;;18.90;5.22;;;;;;;3.56;65.04;100105.13;4906202;28;20037;-64
2022/11/02 07:56:46;;;;;;;16.45;5.45;;;;;;;3.54;65.35;100109.41;4900619;28;20048;-63
2022/11/02 08:05:17;;;;;;;14.40;5.85;;;;;;;3.30;65.41;100072.16;4918663;28;20045;-62
2022/11/02 08:08:03;;;;;;;18.92;5.88;;;;;;;3.50;65.35;100105.94;4882235;28;20053;-61
2022/11/02 08:11:27;;;;;;;13.10;6.43;;;;;;;3.45;65.70;100098.13;4885249;28;21795;-62
2022/11/02 08:14:12;;;;;;;23.02;7.93;;;;;;;3.49;65.59;100093.00;4911376;28;20065;-63
2022/11/02 08:16:48;;;;;;;16.60;7.00;;;;;;;3.57;65.35;100091.34;4910402;28;20179;-62
2022/11/02 08:19:31;;;;;;;18.60;8.10;;;;;;;3.63;65.25;100081.06;4921949;28;20068;-63
2022/11/02 08:22:24;;;;;;;18.20;9.05;;;;;;;3.60;65.11;100060.38;4906171;28;20713;-63
2022/11/02 08:25:04;;;;;;;23.40;9.25;;;;;;;3.74;65.16;100069.09;4884110;28;20057;-63
2022/11/02 08:27:50;;;;;;;17.08;7.05;;;;;;;3.79;64.41;100067.41;4850670;28;20074;-63
2022/11/02 08:33:56;;;;;;;27.90;11.05;;;;;;;3.84;64.27;100060.59;4891073;28;20056;-62
2022/11/02 08:37:15;;;;;;;16.23;7.80;;;;;;;3.91;64.31;100061.47;4935277;28;20544;-62
2022/11/02 08:40:37;;;;;;;17.65;6.85;;;;;;;3.95;64.39;100052.06;4869943;28;20060;-63
2022/11/02 08:43:56;;;;;;;14.23;6.80;;;;;;;4.06;64.10;100050.38;4909821;28;20056;-63
2022/11/02 08:47:14;;;;;;;17.73;5.38;;;;;;;4.20;64.12;100053.94;4909499;28;20544;-63
2022/11/02 08:50:34;;;;;;;10.23;5.38;;;;;;;4.23;63.35;100048.78;4899703;28;20087;-63
2022/11/02 08:53:30;;;;;;;;;;;;;;;4.31;63.32;100046.22;4913840;28;20123;-62
2022/11/02 08:56:58;;;;;;;15.48;4.90;;;;;;;4.34;62.71;100035.88;4889614;28;19924;-61
2022/11/02 09:00:20;;;;;;;9.60;3.67;;;;;;;4.39;62.54;100043.69;4906551;28;20116;-63
2022/11/02 09:03:42;;;;;;;10.32;4.25;;;;;;;4.43;61.53;100040.25;4903622;28;20279;-62
2022/11/02 09:06:53;;;;;;;9.13;3.92;;;;;;;4.44;60.82;100048.03;4837628;28;20046;-63
2022/11/02 09:10:10;;;;;;;8.95;3.92;;;;;;;4.42;61.00;100048.88;4882932;28;20055;-63
2022/11/02 09:13:23;;;;;;;13.90;3.95;;;;;;;4.33;60.65;100040.19;4915454;28;20044;-63
2022/11/02 09:16:33;;;;;;;11.75;4.05;;;;;;;4.22;60.91;100035.81;4922002;28;20106;-63
2022/11/02 09:19:19;;;;;;;9.25;3.42;;;;;;;4.13;61.35;100021.13;4893449;28;20393;-63
2022/11/02 09:22:00;;;;;;;6.35;3.45;;;;;;;4.00;60.93;99998.66;4899219;28;20488;-63
2022/11/02 09:24:50;;;;;;;9.07;3.58;;;;;;;3.91;60.58;99994.28;4864747;28;20053;-63
2022/11/02 09:33:52;;;;;;;9.00;3.42;;;;;;;3.97;60.12;100001.19;4866442;28;20058;-63
2022/11/02 09:36:54;;;;;;;5.85;3.00;;;;;;;4.01;60.56;100000.38;4865922;28;20395;-63
2022/11/02 09:39:39;;;;;;;7.70;2.92;;;;;;;4.02;60.07;99991.75;4940388;28;20104;-63
2022/11/02 09:42:35;;;;;;;6.10;2.70;;;;;;;4.07;59.74;99990.09;4851064;28;20054;-62
2022/11/02 09:45:19;;;;;;;9.48;3.10;;;;;;;3.44;59.15;99869.13;4899656;28;20092;-63
2022/11/02 09:48:05;;;;;;;7.53;3.28;;;;;;;4.26;59.37;99976.38;4913244;28;20057;-63
2022/11/02 09:51:14;;;;;;;11.13;3.58;;;;;;;4.29;59.79;99971.22;4869659;28;20386;-63
2022/11/02 09:54:20;;;;;;;7.22;2.88;;;;;;;4.33;59.88;99960.03;4915224;28;20128;-63
2022/11/02 09:57:02;;;;;;;4.65;3.00;;;;;;;4.35;60.04;99964.34;4901131;28;20049;-63
2022/11/02 09:59:40;;;;;;;8.23;3.30;;;;;;;4.29;59.69;99950.53;4912851;28;20069;-62
2022/11/02 10:02:41;;;;;;;8.00;3.28;;;;;;;4.40;59.56;99952.28;4898868;28;20061;-63
2022/11/02 10:05:44;;;;;;;6.70;3.28;;;;;;;4.44;60.00;99954.91;4906271;28;20056;-63
2022/11/02 10:08:42;;;;;;;6.00;2.55;;;;;;;4.49;59.73;99944.53;4923949;28;20033;-63
2022/11/02 10:11:49;;;;;;;7.00;2.90;;;;;;;4.52;59.67;99944.59;4905425;28;20044;-63
2022/11/02 10:17:55;;;;;;;6.63;2.92;;;;;;;4.45;59.60;99906.59;4900128;28;20037;-63
2022/11/02 10:20:50;;;;;;;7.40;2.90;;;;;;;4.60;60.36;99918.72;4903045;28;20388;-64
2022/11/02 10:23:37;;;;;;;9.43;3.38;;;;;;;4.57;61.04;99909.22;4903423;28;20045;-63
2022/11/02 10:29:35;;;;;;;8.35;3.30;;;;;;;4.62;61.03;99912.69;4873638;28;20041;-63
2022/11/02 10:32:26;;;;;;;7.28;3.45;;;;;;;4.66;61.09;99909.22;4897858;28;20060;-63
2022/11/02 10:35:06;;;;;;;8.50;3.20;;;;;;;4.45;61.32;99852.28;4884159;28;20507;-63
2022/11/02 10:38:35;;;;;;;5.72;3.28;;;;;;;4.70;61.70;99895.44;4895513;28;20218;-63
2022/11/02 10:41:30;;;;;;;12.98;4.00;;;;;;;4.76;61.50;99905.78;4909950;28;20051;-63
2022/11/02 10:44:49;;;;;;;7.18;2.97;;;;;;;4.78;61.12;99907.53;4903969;28;20048;-63
2022/11/02 10:51:04;;;;;;;10.27;3.95;;;;;;;4.64;62.46;99889.38;4865497;28;20041;-63
2022/11/02 10:59:31;;;;;;;16.83;4.78;;;;;;;4.54;64.07;99888.50;4914640;28;20055;-63
2022/11/02 11:02:17;;;;;;;12.95;3.60;;;;;;;4.53;64.44;99882.47;4891947;28;20040;-63
2022/11/02 11:05:17;;;;;;;14.02;4.45;;;;;;;4.47;64.92;99877.28;4871349;28;20185;-64
2022/11/02 11:07:54;;;;;;;16.60;6.43;;;;;;;4.60;64.75;99888.53;4926724;28;20040;-64
2022/11/02 11:10:34;;;;;;;17.85;5.32;;;;;;;4.57;65.10;99877.28;4899948;28;20052;-64
2022/11/02 11:13:25;;;;;;;14.38;5.97;;;;;;;4.56;65.75;99886.78;4883802;28;20040;-64
2022/11/02 11:16:49;;;;;;;24.73;8.60;;;;;;;4.37;65.78;99877.25;4885484;28;20044;-64
2022/11/02 11:19:28;;;;;;;18.13;7.30;;;;;;;4.31;66.35;99876.38;4928223;28;20064;-64
2022/11/02 11:22:38;;;;;;;12.85;4.82;;;;;;;4.35;67.28;99872.09;4909333;28;20052;-64
2022/11/02 11:25:28;;;;;;;9.88;4.35;;;;;;;4.44;67.22;99873.81;4862770;28;20088;-64
2022/11/02 11:28:29;;;;;;;11.13;4.72;;;;;;;4.43;67.45;99866.94;4905617;28;20053;-65
2022/11/02 11:31:24;;;;;;;9.75;3.45;;;;;;;4.42;67.63;99844.50;4875646;28;20098;-65
2022/11/02 11:34:25;;;;;;;11.50;4.07;;;;;;;4.46;67.80;99848.81;4842373;28;20059;-64
2022/11/02 11:40:37;;;;;;;10.63;3.20;;;;;;;4.45;67.42;99847.09;4930283;28;20044;-63
2022/11/02 11:43:29;;;;;;;16.20;3.22;;;;;;;4.39;67.53;99852.25;4904277;28;20345;-64
2022/11/02 11:46:21;;;;;;;13.05;3.15;;;;;;;4.47;67.66;99845.41;4905046;28;20058;-63
2022/11/02 11:49:01;;;;;;;10.00;3.13;;;;;;;4.52;67.76;99849.69;4871347;28;20061;-63
2022/11/02 11:51:57;;;;;;;12.02;3.28;;;;;;;4.55;67.75;99838.50;4853528;28;20046;-63
2022/11/02 11:55:01;;;;;;;7.93;3.85;;;;;;;4.52;67.67;99843.66;4852927;28;20195;-63
2022/11/02 11:57:43;;;;;;;12.00;3.15;;;;;;;4.48;67.69;99849.69;4865263;28;20084;-62
2022/11/02 12:00:37;;;;;;;12.35;2.95;;;;;;;4.48;67.80;99847.97;4915718;28;20045;-62
2022/11/02 12:03:18;;;;;;;16.67;3.95;;;;;;;4.38;68.04;99840.19;4855945;28;20604;-63
2022/11/02 12:06:22;;;;;;;15.65;4.30;;;;;;;4.37;68.79;99848.78;4847153;28;20087;-63
2022/11/02 12:09:27;;;;;;;10.77;3.58;;;;;;;4.36;68.80;99844.50;4908844;28;20058;-63
2022/11/02 12:12:21;;;;;;;11.55;3.75;;;;;;;4.39;68.39;99836.72;4895591;28;20049;-63
2022/11/02 12:15:47;;;;;;;8.88;3.85;;;;;;;4.25;68.61;99803.94;4894128;28;20049;-63
2022/11/02 12:18:35;;;;;;;13.90;4.00;;;;;;;4.44;67.74;99830.72;4914862;28;20041;-63
2022/11/02 12:21:49;;;;;;;11.60;4.25;;;;;;;4.42;68.32;99821.22;4912272;28;20074;-64
2022/11/02 12:24:48;;;;;;;13.23;4.18;;;;;;;4.39;68.30;99816.03;4886447;28;20076;-64
2022/11/02 12:27:51;;;;;;;13.80;3.90;;;;;;;4.49;66.87;99804.84;4903850;28;20120;-63
2022/11/02 12:33:48;;;;;;;14.93;3.50;;;;;;;4.54;65.96;99800.53;4926370;28;20358;-65
2022/11/02 12:36:36;;;;;;;7.38;2.80;;;;;;;4.53;66.20;99785.88;4892762;28;20052;-64
2022/11/02 12:40:00;;;;;;;12.10;3.20;;;;;;;4.58;66.35;99776.38;4882633;28;20089;-64
2022/11/02 12:42:43;;;;;;;7.55;2.65;;;;;;;4.39;66.00;99743.59;4889389;28;20042;-63
2022/11/02 12:45:34;;;;;;;12.95;3.00;;;;;;;4.49;66.24;99740.16;4917625;28;20084;-63
2022/11/02 12:48:23;;;;;;;8.15;2.72;;;;;;;4.52;65.89;99735.00;4901504;28;20037;-64
2022/11/02 12:51:23;;;;;;;13.90;2.97;;;;;;;4.66;65.82;99748.78;4928814;28;20045;-64
2022/11/02 12:54:13;;;;;;;7.88;2.78;;;;;;;4.73;65.96;99750.50;4928308;28;20048;-63
2022/11/02 12:57:01;;;;;;;13.90;3.20;;;;;;;4.80;65.61;99755.69;4855159;28;20037;-65
2022/11/02 13:00:11;;;;;;;12.90;3.00;;;;;;;4.60;65.30;99719.47;4851348;28;20061;-64
2022/11/02 13:02:58;;;;;;;11.32;3.33;;;;;;;4.93;67.47;99783.28;4889920;28;20053;-65
2022/11/02 13:05:41;;;;;;;11.10;3.53;;;;;;;4.82;69.47;99790.16;4905733;28;22387;-64
2022/11/02 13:08:37;;;;;;;9.10;2.90;;;;;;;4.64;72.83;99796.22;4869107;28;20593;-64
2022/11/02 13:11:32;;;;;;;8.35;3.00;;;;;;;3.96;74.89;99740.97;4877679;28;20053;-65
2022/11/02 13:14:18;;;;;;;9.50;3.22;;;;;;;3.93;76.00;99715.97;4859122;28;20040;-64
2022/11/02 13:17:11;;;;;;;11.98;4.78;;;;;;;4.08;76.63;99733.25;4921114;28;20057;-64
2022/11/02 13:19:56;;;;;;;8.02;3.40;;;;;;;4.04;77.34;99705.66;4872958;28;20043;-65
2022/11/02 13:22:57;;;;;;;8.82;3.38;;;;;;;4.14;78.50;99681.53;4891449;28;20068;-64
2022/11/02 13:25:40;;;;;;;10.95;4.22;;;;;;;3.71;78.25;99613.44;4871995;28;20335;-65
2022/11/02 13:28:20;;;;;;;8.25;3.53;;;;;;;3.88;78.49;99668.59;4887962;28;20042;-64
2022/11/02 13:31:22;;;;;;;13.43;3.15;;;;;;;3.80;78.43;99667.72;4909454;28;20041;-64
2022/11/02 13:34:07;;;;;;;8.00;3.08;;;;;;;3.77;78.79;99637.56;4880684;28;20049;-64
2022/11/02 13:36:47;;;;;;;12.02;3.92;;;;;;;3.95;78.89;99646.22;4866829;28;20053;-64
2022/11/02 13:39:41;;;;;;;9.88;3.22;;;;;;;4.07;78.45;99648.81;4883175;28;20053;-64
2022/11/02 13:42:56;;;;;;;9.02;3.80;;;;;;;4.16;77.53;99653.09;4899674;28;20087;-64
2022/11/02 13:45:58;;;;;;;9.98;3.10;;;;;;;4.28;75.93;99641.00;4911988;28;20057;-66
2022/11/02 13:49:07;;;;;;;15.63;3.15;;;;;;;4.37;74.66;99663.44;4894688;28;20040;-64
2022/11/02 13:52:06;;;;;;;10.13;2.97;;;;;;;4.28;74.33;99679.81;4877698;28;20054;-64
2022/11/02 13:54:56;;;;;;;11.13;5.00;;;;;;;3.76;78.42;99710.78;4922047;28;20053;-63
2022/11/02 13:57:50;;;;;;;10.38;5.00;;;;;;;3.16;80.32;99696.78;4907406;28;20065;-65
2022/11/02 14:01:17;;;;;;;11.88;4.88;;;;;;;3.20;81.11;99721.78;4910984;28;20057;-65
2022/11/02 14:04:04;;;;;;;18.33;6.10;;;;;;;3.17;81.66;99720.06;4898533;28;20061;-65
2022/11/02 14:07:25;;;;;;;12.50;4.75;;;;;;;2.70;81.98;99650.13;4956963;28;20162;-64
2022/11/02 14:10:19;;;;;;;14.80;4.53;;;;;;;3.32;81.69;99719.25;4908060;28;20041;-65
2022/11/02 14:13:16;;;;;;;13.82;3.85;;;;;;;3.48;81.77;99745.16;4926084;28;20146;-65
2022/11/02 14:16:08;;;;;;;13.13;3.55;;;;;;;3.55;82.05;99752.91;4893098;28;20045;-65
2022/11/02 14:18:46;;;;;;;8.05;2.88;;;;;;;3.59;82.36;99766.69;4909472;28;20100;-65
2022/11/02 14:22:07;;;;;;;9.90;3.38;;;;;;;3.51;82.53;99763.22;4906629;28;20072;-64
2022/11/02 14:25:32;;;;;;;9.20;3.00;;;;;;;3.46;82.57;99755.47;4858458;28;20091;-64
2022/11/02 14:28:45;;;;;;;7.80;2.65;;;;;;;3.45;82.89;99762.34;4895365;28;20113;-64
2022/11/02 14:31:41;;;;;;;9.20;2.97;;;;;;;3.51;83.60;99755.47;4903115;28;20057;-64
2022/11/02 14:34:40;;;;;;;10.50;3.20;;;;;;;3.52;83.49;99752.03;4867281;28;20064;-64
2022/11/02 14:37:38;;;;;;;10.85;3.72;;;;;;;3.46;82.83;99742.53;4859672;28;20056;-64
2022/11/02 14:40:28;;;;;;;13.00;3.00;;;;;;;3.45;82.13;99736.53;4895603;28;20068;-64
2022/11/02 14:43:39;;;;;;;12.32;3.78;;;;;;;3.51;81.84;99725.34;4911577;28;20045;-64
2022/11/02 14:46:56;;;;;;;10.20;3.20;;;;;;;3.51;81.46;99724.50;4936215;27;20047;-65
2022/11/02 14:49:42;;;;;;;12.95;3.58;;;;;;;3.30;81.08;99709.78;4905169;28;20045;-64
2022/11/02 14:52:29;;;;;;;11.75;3.25;;;;;;;3.38;80.69;99708.94;4916785;28;20170;-64
2022/11/02 14:55:25;;;;;;;11.80;3.05;;;;;;;3.34;79.51;99706.34;4890550;28;20081;-64
2022/11/02 14:58:20;;;;;;;7.35;2.90;;;;;;;3.20;78.38;99688.22;4887029;28;20045;-64
2022/11/02 15:04:09;;;;;;;6.20;2.20;;;;;;;3.35;79.14;99703.78;4908603;28;20112;-63
2022/11/02 15:07:03;;;;;;;8.45;3.38;;;;;;;3.30;78.17;99710.63;4820848;28;20052;-64
2022/11/02 15:10:04;;;;;;;5.38;2.50;;;;;;;3.02;77.93;99666.63;4843724;28;20053;-65
2022/11/02 15:12:43;;;;;;;6.30;2.53;;;;;;;3.29;77.91;99719.22;4884683;28;20040;-64